sensor_id;sensor_type;location;lat;lon;timestamp;pressure;altitude;pressure_sealevel;temperature;humidity
8360;BME280;4217;48.762;11.428;2022-07-29T00:06:32;97386.00;;;26.04;44.95
8360;BME280;4217;48.762;11.428;2022-07-29T00:17:35;97377.28;;;25.67;48.61
8360;BME280;4217;48.762;11.428;2022-07-29T00:40:32;97325.94;;;25.08;51.82
8360;BME280;4217;48.762;11.428;2022-07-29T00:50:34;97300.38;;;25.14;51.49
8360;BME280;4217;48.762;11.428;2022-07-29T01:00:39;97289.06;;;25.09;51.35
8360;BME280;4217;48.762;11.428;2022-07-29T01:11:04;97270.03;;;25.29;50.63
8360;BME280;4217;48.762;11.428;2022-07-29T01:33:29;97255.91;;;25.32;50.58
8360;BME280;4217;48.762;11.428;2022-07-29T01:43:59;97294.75;;;25.19;51.25
8360;BME280;4217;48.762;11.428;2022-07-29T01:54:58;97283.03;;;24.99;51.41
8360;BME280;4217;48.762;11.428;2022-07-29T02:05:10;97250.19;;;25.06;51.30
8360;BME280;4217;48.762;11.428;2022-07-29T02:15:18;97248.50;;;25.01;51.75
8360;BME280;4217;48.762;11.428;2022-07-29T02:25:24;97238.88;;;25.00;51.91
8360;BME280;4217;48.762;11.428;2022-07-29T02:35:40;97251.53;;;24.88;53.12
8360;BME280;4217;48.762;11.428;2022-07-29T02:45:42;97259.41;;;24.69;54.56
8360;BME280;4217;48.762;11.428;2022-07-29T02:55:59;97271.63;;;24.66;54.43
8360;BME280;4217;48.762;11.428;2022-07-29T03:06:03;97291.25;;;24.67;54.51
8360;BME280;4217;48.762;11.428;2022-07-29T03:16:07;97311.72;;;24.83;54.14
8360;BME280;4217;48.762;11.428;2022-07-29T03:26:09;97322.50;;;24.83;54.00
8360;BME280;4217;48.762;11.428;2022-07-29T03:36:11;97323.53;;;24.91;53.21
8360;BME280;4217;48.762;11.428;2022-07-29T03:46:13;97323.63;;;24.94;53.17
8360;BME280;4217;48.762;11.428;2022-07-29T03:56:21;97320.59;;;24.84;52.91
8360;BME280;4217;48.762;11.428;2022-07-29T04:06:22;97321.47;;;24.88;52.01
8360;BME280;4217;48.762;11.428;2022-07-29T04:16:24;97316.31;;;24.95;51.66
8360;BME280;4217;48.762;11.428;2022-07-29T04:26:26;97329.09;;;24.37;54.52
8360;BME280;4217;48.762;11.428;2022-07-29T04:36:27;97329.09;;;24.49;54.77
8360;BME280;4217;48.762;11.428;2022-07-29T04:46:30;97328.66;;;24.84;54.33
8360;BME280;4217;48.762;11.428;2022-07-29T04:56:32;97335.09;;;25.31;53.38
8360;BME280;4217;48.762;11.428;2022-07-29T05:06:33;97338.44;;;25.96;52.02
8360;BME280;4217;48.762;11.428;2022-07-29T05:16:35;97332.41;;;26.46;50.92
8360;BME280;4217;48.762;11.428;2022-07-29T05:26:37;97328.03;;;26.89;49.25
8360;BME280;4217;48.762;11.428;2022-07-29T05:36:38;97335.75;;;27.25;48.35
8360;BME280;4217;48.762;11.428;2022-07-29T05:46:40;97340.63;;;27.35;47.74
8360;BME280;4217;48.762;11.428;2022-07-29T05:56:42;97342.50;;;27.16;47.76
8360;BME280;4217;48.762;11.428;2022-07-29T06:06:43;97358.47;;;27.79;46.74
8360;BME280;4217;48.762;11.428;2022-07-29T06:16:45;97341.75;;;36.65;31.22
8360;BME280;4217;48.762;11.428;2022-07-29T06:26:47;97322.38;;;45.56;19.13
8360;BME280;4217;48.762;11.428;2022-07-29T06:36:48;97316.47;;;51.18;14.34
8360;BME280;4217;48.762;11.428;2022-07-29T06:46:52;97305.84;;;52.92;12.46
8360;BME280;4217;48.762;11.428;2022-07-29T06:56:55;97303.50;;;55.18;10.43
8360;BME280;4217;48.762;11.428;2022-07-29T07:06:57;97287.91;;;57.54;9.08
8360;BME280;4217;48.762;11.428;2022-07-29T07:16:59;97301.44;;;58.79;8.26
8360;BME280;4217;48.762;11.428;2022-07-29T07:27:01;97291.78;;;58.27;8.16
8360;BME280;4217;48.762;11.428;2022-07-29T07:37:03;97291.81;;;58.75;7.85
8360;BME280;4217;48.762;11.428;2022-07-29T07:47:05;97288.19;;;57.05;8.36
8360;BME280;4217;48.762;11.428;2022-07-29T07:57:14;97288.41;;;58.06;7.68
8360;BME280;4217;48.762;11.428;2022-07-29T08:07:16;97278.69;;;60.11;6.88
8360;BME280;4217;48.762;11.428;2022-07-29T08:17:17;97261.56;;;60.18;6.68
8360;BME280;4217;48.762;11.428;2022-07-29T08:27:19;97259.94;;;61.13;5.82
8360;BME280;4217;48.762;11.428;2022-07-29T08:37:41;97264.00;;;60.93;6.01
8360;BME280;4217;48.762;11.428;2022-07-29T08:47:46;97265.59;;;58.59;6.77
8360;BME280;4217;48.762;11.428;2022-07-29T08:57:48;97265.00;;;58.05;7.30
8360;BME280;4217;48.762;11.428;2022-07-29T09:07:59;97260.66;;;58.67;6.77
8360;BME280;4217;48.762;11.428;2022-07-29T09:18:01;97255.34;;;58.71;6.96
8360;BME280;4217;48.762;11.428;2022-07-29T09:28:08;97241.31;;;57.63;6.93
8360;BME280;4217;48.762;11.428;2022-07-29T09:38:11;97238.22;;;58.94;6.69
8360;BME280;4217;48.762;11.428;2022-07-29T09:48:16;97226.44;;;55.03;8.24
8360;BME280;4217;48.762;11.428;2022-07-29T09:58:20;97237.31;;;54.65;8.10
8360;BME280;4217;48.762;11.428;2022-07-29T10:08:25;97223.22;;;52.02;9.90
8360;BME280;4217;48.762;11.428;2022-07-29T10:18:28;97228.41;;;48.98;10.89
8360;BME280;4217;48.762;11.428;2022-07-29T10:28:33;97227.13;;;47.43;12.49
8360;BME280;4217;48.762;11.428;2022-07-29T10:38:45;97223.34;;;51.66;10.15
8360;BME280;4217;48.762;11.428;2022-07-29T10:49:04;97218.78;;;49.43;11.58
8360;BME280;4217;48.762;11.428;2022-07-29T11:09:24;97200.28;;;46.89;12.99
8360;BME280;4217;48.762;11.428;2022-07-29T11:19:38;97201.28;;;42.97;16.49
8360;BME280;4217;48.762;11.428;2022-07-29T11:29:49;97204.78;;;40.13;19.35
8360;BME280;4217;48.762;11.428;2022-07-29T11:50:04;97194.16;;;38.40;21.15
8360;BME280;4217;48.762;11.428;2022-07-29T12:00:10;97200.28;;;37.83;21.39
8360;BME280;4217;48.762;11.428;2022-07-29T12:10:19;97194.03;;;37.82;20.66
8360;BME280;4217;48.762;11.428;2022-07-29T12:20:30;97188.75;;;38.37;19.89
8360;BME280;4217;48.762;11.428;2022-07-29T12:30:45;97188.97;;;37.97;20.54
8360;BME280;4217;48.762;11.428;2022-07-29T12:40:48;97171.41;;;38.68;20.73
8360;BME280;4217;48.762;11.428;2022-07-29T12:50:58;97167.72;;;40.27;19.32
8360;BME280;4217;48.762;11.428;2022-07-29T13:01:04;97159.56;;;39.89;20.02
8360;BME280;4217;48.762;11.428;2022-07-29T13:11:31;97170.66;;;39.35;19.63
8360;BME280;4217;48.762;11.428;2022-07-29T13:21:37;97172.22;;;39.74;19.24
8360;BME280;4217;48.762;11.428;2022-07-29T13:31:38;97170.47;;;38.46;21.99
8360;BME280;4217;48.762;11.428;2022-07-29T13:41:40;97166.88;;;38.33;22.79
8360;BME280;4217;48.762;11.428;2022-07-29T13:51:42;97152.31;;;38.20;23.19
8360;BME280;4217;48.762;11.428;2022-07-29T14:01:43;97148.22;;;38.12;23.19
8360;BME280;4217;48.762;11.428;2022-07-29T14:11:46;97154.91;;;38.11;23.22
8360;BME280;4217;48.762;11.428;2022-07-29T14:21:52;97136.34;;;37.34;24.18
8360;BME280;4217;48.762;11.428;2022-07-29T14:31:54;97133.22;;;37.16;24.78
8360;BME280;4217;48.762;11.428;2022-07-29T14:41:57;97150.38;;;35.74;26.58
8360;BME280;4217;48.762;11.428;2022-07-29T14:52:00;97182.81;;;36.22;26.66
8360;BME280;4217;48.762;11.428;2022-07-29T15:02:02;97196.72;;;35.31;28.91
8360;BME280;4217;48.762;11.428;2022-07-29T15:12:04;97184.56;;;35.02;29.55
8360;BME280;4217;48.762;11.428;2022-07-29T15:22:07;97198.50;;;34.81;30.07
8360;BME280;4217;48.762;11.428;2022-07-29T15:32:08;97199.03;;;35.33;28.88
8360;BME280;4217;48.762;11.428;2022-07-29T15:42:10;97202.44;;;34.38;29.02
8360;BME280;4217;48.762;11.428;2022-07-29T15:52:12;97212.03;;;34.13;28.70
8360;BME280;4217;48.762;11.428;2022-07-29T16:02:13;97219.44;;;33.53;28.87
8360;BME280;4217;48.762;11.428;2022-07-29T16:12:15;97215.63;;;33.37;27.97
8360;BME280;4217;48.762;11.428;2022-07-29T16:22:16;97238.81;;;32.79;26.92
8360;BME280;4217;48.762;11.428;2022-07-29T16:32:18;97250.16;;;32.03;27.48
8360;BME280;4217;48.762;11.428;2022-07-29T16:42:22;97266.78;;;31.62;27.86
8360;BME280;4217;48.762;11.428;2022-07-29T16:52:44;97286.56;;;30.76;29.34
8360;BME280;4217;48.762;11.428;2022-07-29T17:02:45;97295.00;;;30.17;31.30
8360;BME280;4217;48.762;11.428;2022-07-29T17:12:47;97292.25;;;29.76;33.99
8360;BME280;4217;48.762;11.428;2022-07-29T17:22:48;97287.19;;;29.08;36.23
8360;BME280;4217;48.762;11.428;2022-07-29T17:32:50;97313.75;;;28.49;37.69
8360;BME280;4217;48.762;11.428;2022-07-29T17:42:52;97326.50;;;27.61;39.21
8360;BME280;4217;48.762;11.428;2022-07-29T17:52:53;97323.03;;;27.26;40.37
8360;BME280;4217;48.762;11.428;2022-07-29T18:02:55;97341.53;;;26.89;42.15
8360;BME280;4217;48.762;11.428;2022-07-29T18:12:56;97361.81;;;26.83;42.99
8360;BME280;4217;48.762;11.428;2022-07-29T18:22:58;97376.06;;;26.52;44.51
8360;BME280;4217;48.762;11.428;2022-07-29T18:33:00;97384.78;;;26.45;44.79
8360;BME280;4217;48.762;11.428;2022-07-29T18:43:21;97397.59;;;26.20;46.08
8360;BME280;4217;48.762;11.428;2022-07-29T18:53:23;97415.78;;;26.24;46.28
8360;BME280;4217;48.762;11.428;2022-07-29T19:03:24;97438.38;;;26.19;47.37
8360;BME280;4217;48.762;11.428;2022-07-29T19:13:26;97456.03;;;25.89;49.25
8360;BME280;4217;48.762;11.428;2022-07-29T19:23:27;97467.72;;;25.80;50.76
8360;BME280;4217;48.762;11.428;2022-07-29T19:33:29;97483.78;;;25.77;51.39
8360;BME280;4217;48.762;11.428;2022-07-29T19:43:32;97502.31;;;25.54;53.14
8360;BME280;4217;48.762;11.428;2022-07-29T19:53:53;97498.63;;;25.47;53.41
8360;BME280;4217;48.762;11.428;2022-07-29T20:03:54;97508.50;;;25.30;54.37
8360;BME280;4217;48.762;11.428;2022-07-29T20:13:56;97506.25;;;25.08;54.69
8360;BME280;4217;48.762;11.428;2022-07-29T20:23:57;97508.66;;;24.77;55.59
8360;BME280;4217;48.762;11.428;2022-07-29T20:34:00;97524.19;;;24.59;56.84
8360;BME280;4217;48.762;11.428;2022-07-29T20:44:04;97523.72;;;24.57;56.73
8360;BME280;4217;48.762;11.428;2022-07-29T20:54:06;97519.81;;;24.54;57.57
8360;BME280;4217;48.762;11.428;2022-07-29T21:04:08;97528.47;;;24.39;59.00
8360;BME280;4217;48.762;11.428;2022-07-29T21:14:11;97541.97;;;24.51;58.95
8360;BME280;4217;48.762;11.428;2022-07-29T21:24:29;97549.66;;;24.41;59.80
8360;BME280;4217;48.762;11.428;2022-07-29T21:34:30;97547.78;;;24.41;60.17
8360;BME280;4217;48.762;11.428;2022-07-29T21:44:32;97544.81;;;24.13;61.56
8360;BME280;4217;48.762;11.428;2022-07-29T21:54:35;97538.09;;;23.99;61.51
8360;BME280;4217;48.762;11.428;2022-07-29T22:04:37;97526.47;;;23.95;61.98
8360;BME280;4217;48.762;11.428;2022-07-29T22:14:39;97512.75;;;24.08;61.85
8360;BME280;4217;48.762;11.428;2022-07-29T22:24:41;97503.25;;;23.90;62.69
8360;BME280;4217;48.762;11.428;2022-07-29T22:34:42;97488.06;;;23.73;62.89
8360;BME280;4217;48.762;11.428;2022-07-29T22:44:44;97485.75;;;23.63;63.40
8360;BME280;4217;48.762;11.428;2022-07-29T22:54:45;97493.63;;;23.68;62.63
8360;BME280;4217;48.762;11.428;2022-07-29T23:04:47;97486.88;;;23.62;62.96
8360;BME280;4217;48.762;11.428;2022-07-29T23:14:48;97473.53;;;23.45;63.38
8360;BME280;4217;48.762;11.428;2022-07-29T23:24:50;97474.03;;;23.38;63.11
8360;BME280;4217;48.762;11.428;2022-07-29T23:34:51;97473.25;;;23.38;63.13
8360;BME280;4217;48.762;11.428;2022-07-29T23:44:53;97461.91;;;23.32;63.35
8360;BME280;4217;48.762;11.428;2022-07-29T23:54:54;97456.00;;;23.18;63.70
